Terminal Aerodrome Forecast
Issued by NWS Charleston, SC

Home | Current Version | Previous Version | Text Only | Print | Product List | Glossary On
Versions: 1 2 3 4 5 6 7 8 9 10 11 12 13 14 15 16 17 18 19 20 21 22 23
000
FTUS42 KCHS 291355 AAA
TAFSAV
TAF AMD
KSAV 291355Z 2914/3012 04007KT P6SM VCSH SCT025
      TEMPO 2914/2916 5SM SHRA BKN025
     FM291600 09009KT 6SM -SHRA SCT025 BKN035 OVC150
     FM292100 06003KT P6SM VCSH SCT015 BKN040=

USA.gov is the U.S. government's official web portal to all federal, state and local government web resources and services.